ROMMA est une association bénévole à but non lucratif. Votre soutien est indispensable : ADHERER à ROMMA ou FAIRE un DON

Crest - (26, Drôme)

Vallée de la Drôme (315 m)   Longitude: 5°2' E   Latitude: 44°44' N Station partenaire n°62
 

Détail journalier du     <<     >>

Température Precipitation Humidité Pression Vent Dir Rafale Dir. rafale Ensol.
Heure (°C) (mm) (%) (hPa) (km/h) (km/h) (min)
01:00 0.209410211S5S0
02:00 -0.109410212S8SSE0
03:00 0.109410212SE6SE0
04:00 -0.809310212SSE8S0
05:00 -0.709410211---5SO0
06:00 -1.209410211SSO5SO0
07:00 -1.209410221SSO5SSO0
08:00 -1.909410221SSO5SSO0
09:00 -1.109410231---5SSO0
10:00 -0.509410241SSE5S12
11:00 1.809410241SSE3SSE35
12:00 4.507210242SE6SE60
13:00 4.807410244S10SSO33
14:00 4.707510248S15SSO8
15:00 5.607410244S11S1
16:00 5.707610243SSO13SO30
17:00 4.308110241ENE5SO7
18:00 3.808210241SO5NNO0
19:00 3.208310251---5SO0
20:00 2.308610251NNE5E0
21:00 1.608810251SE3SE0
22:00 1.609010251---6SSE0
23:00 1.109110251SSE6SSE0
minuit 1.209010251SSE6SSE0

Graphique du 05-12-2019

 

Serveur OMMA